createdAt,value
2017-03-24T00:00:44.917Z,82.74
2017-03-24T00:01:45.866Z,82.83
2017-03-24T00:02:49.434Z,82.99
2017-03-24T00:03:49.547Z,83.51
2017-03-24T00:04:44.799Z,82.94
2017-03-24T00:05:39.034Z,83.64
2017-03-24T00:06:49.090Z,83.08
2017-03-24T00:07:45.916Z,83.24
2017-03-24T00:08:33.604Z,83.85
2017-03-24T00:09:50.085Z,83.80
2017-03-24T00:10:49.695Z,83.25
2017-03-24T00:11:44.750Z,83.26
2017-03-24T00:12:49.618Z,83.39
2017-03-24T00:13:49.085Z,83.14
2017-03-24T00:14:44.599Z,83.77
2017-03-24T00:15:44.470Z,84.31
2017-03-24T00:16:48.825Z,84.45
2017-03-24T00:17:50.474Z,83.73
2017-03-24T00:18:45.500Z,83.64
2017-03-24T00:19:45.221Z,83.55
2017-03-24T00:20:50.468Z,83.76
2017-03-24T00:21:49.684Z,83.17
2017-03-24T00:22:49.361Z,83.18
2017-03-24T00:23:49.469Z,83.43
2017-03-24T00:24:39.678Z,84.04
2017-03-24T00:25:54.275Z,83.41
2017-03-24T00:26:38.642Z,83.45
2017-03-24T00:27:34.128Z,83.51
2017-03-24T00:28:39.684Z,83.06
2017-03-24T00:29:44.890Z,82.91
2017-03-24T00:30:44.932Z,83.73
2017-03-24T00:31:45.003Z,83.97
2017-03-24T00:32:49.134Z,83.18
2017-03-24T00:33:43.848Z,83.30
2017-03-24T00:34:49.123Z,83.83
2017-03-24T00:35:49.120Z,84.02
2017-03-24T00:36:38.320Z,84.19
2017-03-24T00:37:50.153Z,84.60
2017-03-24T00:38:45.046Z,84.93
2017-03-24T00:39:44.833Z,84.11
2017-03-24T00:40:44.841Z,83.78
2017-03-24T00:41:45.609Z,83.24
2017-03-24T00:42:44.557Z,82.50
2017-03-24T00:43:44.755Z,81.81
2017-03-24T00:44:38.136Z,81.61
2017-03-24T00:45:48.144Z,81.86
2017-03-24T00:46:49.830Z,82.24
2017-03-24T00:47:50.579Z,82.01
2017-03-24T00:48:44.504Z,82.22
2017-03-24T00:49:45.293Z,82.96
2017-03-24T00:50:44.510Z,82.02
2017-03-24T00:51:44.297Z,82.46
2017-03-24T00:52:49.590Z,82.21
2017-03-24T00:53:49.696Z,82.45
2017-03-24T00:54:44.143Z,82.80
2017-03-24T00:55:45.246Z,82.66
2017-03-24T00:56:48.876Z,83.71
2017-03-24T00:57:50.110Z,82.76
2017-03-24T00:58:45.412Z,82.43
2017-03-24T00:59:44.860Z,81.99
2017-03-24T01:00:39.168Z,81.80
2017-03-24T01:01:44.353Z,81.80
2017-03-24T01:02:49.580Z,81.44
2017-03-24T01:03:49.034Z,81.58
2017-03-24T01:04:45.652Z,81.33
2017-03-24T01:05:50.018Z,81.56
2017-03-24T01:06:41.245Z,81.92
2017-03-24T01:07:44.425Z,81.55
2017-03-24T01:08:44.619Z,82.26
2017-03-24T01:09:45.348Z,82.24
2017-03-24T01:10:44.334Z,82.40
2017-03-24T01:11:48.885Z,82.77
2017-03-24T01:12:44.482Z,82.45
2017-03-24T01:13:44.358Z,82.37
2017-03-24T01:14:50.106Z,82.20
2017-03-24T01:15:45.895Z,82.21
2017-03-24T01:16:45.334Z,81.39
2017-03-24T01:17:50.580Z,81.67
2017-03-24T01:18:49.908Z,81.07
2017-03-24T01:19:39.363Z,81.41
2017-03-24T01:20:50.183Z,81.58
2017-03-24T01:21:41.183Z,80.64
2017-03-24T01:22:50.184Z,81.33
2017-03-24T01:23:49.549Z,81.90
2017-03-24T01:24:49.546Z,81.63
2017-03-24T01:25:44.953Z,81.56
2017-03-24T01:26:49.756Z,80.72
2017-03-24T01:27:44.969Z,81.14
2017-03-24T01:28:44.398Z,81.56
2017-03-24T01:29:39.615Z,82.29
2017-03-24T01:30:33.546Z,81.65
2017-03-24T01:31:49.196Z,81.10
2017-03-24T01:32:49.303Z,82.01
2017-03-24T01:33:49.029Z,81.96
2017-03-24T01:34:49.578Z,82.28
2017-03-24T01:35:49.568Z,82.44
2017-03-24T01:36:49.213Z,82.41
2017-03-24T01:37:44.305Z,81.62
2017-03-24T01:38:44.343Z,82.18
2017-03-24T01:39:49.114Z,82.38
2017-03-24T01:40:48.564Z,81.69
2017-03-24T01:41:49.350Z,82.06
2017-03-24T01:42:44.882Z,82.17
2017-03-24T01:43:39.209Z,82.34
2017-03-24T01:44:44.880Z,81.89
2017-03-24T01:45:44.778Z,81.84
2017-03-24T01:46:44.982Z,82.39
2017-03-24T01:47:49.210Z,82.66
2017-03-24T01:48:49.622Z,82.15
2017-03-24T01:49:28.480Z,82.64
2017-03-24T01:50:49.214Z,82.89
2017-03-24T01:51:44.814Z,83.19
2017-03-24T01:52:44.798Z,83.34
2017-03-24T01:53:44.816Z,83.69
2017-03-24T01:54:49.310Z,84.15
2017-03-24T01:55:40.408Z,84.28
2017-03-24T01:56:45.942Z,84.02
2017-03-24T01:57:48.568Z,84.25
2017-03-24T01:58:48.945Z,83.81
2017-03-24T01:59:49.047Z,83.84
2017-03-24T02:00:49.485Z,83.01
2017-03-24T02:01:44.926Z,83.95
2017-03-24T02:02:46.346Z,83.98
2017-03-24T02:03:44.998Z,84.25
2017-03-24T02:04:44.482Z,84.83
2017-03-24T02:05:49.223Z,84.23
2017-03-24T02:06:39.160Z,83.66
2017-03-24T02:07:49.235Z,83.59
2017-03-24T02:08:49.232Z,84.65
2017-03-24T02:09:45.001Z,84.03
2017-03-24T02:10:44.943Z,83.28
2017-03-24T02:11:39.152Z,83.01
2017-03-24T02:12:49.653Z,83.60
2017-03-24T02:13:49.110Z,84.18
2017-03-24T02:14:44.402Z,84.60
2017-03-24T02:15:44.655Z,84.59
2017-03-24T02:16:44.760Z,85.43
2017-03-24T02:17:45.008Z,84.86
2017-03-24T02:18:44.549Z,85.18
2017-03-24T02:19:45.013Z,85.13
2017-03-24T02:20:44.564Z,84.30
2017-03-24T02:21:43.550Z,84.07
2017-03-24T02:22:49.551Z,84.40
2017-03-24T02:23:33.367Z,84.03
2017-03-24T02:24:49.688Z,84.77
2017-03-24T02:25:38.682Z,84.95
2017-03-24T02:26:44.892Z,85.34
2017-03-24T02:27:49.436Z,85.37
2017-03-24T02:28:44.946Z,85.71
2017-03-24T02:29:49.480Z,85.06
2017-03-24T02:30:49.366Z,84.64
2017-03-24T02:31:49.296Z,84.35
2017-03-24T02:32:44.257Z,85.03
2017-03-24T02:33:44.430Z,85.70
2017-03-24T02:34:33.315Z,85.83
2017-03-24T02:35:49.708Z,85.77
2017-03-24T02:36:37.360Z,85.62
2017-03-24T02:37:45.471Z,85.93
2017-03-24T02:38:49.708Z,85.63
2017-03-24T02:39:44.987Z,85.19
2017-03-24T02:40:32.810Z,85.14
2017-03-24T02:41:44.940Z,84.89
2017-03-24T02:42:49.265Z,85.41
2017-03-24T02:43:43.955Z,85.03
2017-03-24T02:44:44.863Z,84.94
2017-03-24T02:45:44.885Z,84.98
2017-03-24T02:46:44.930Z,85.06
2017-03-24T02:47:49.552Z,84.68
2017-03-24T02:48:44.926Z,84.80
2017-03-24T02:49:49.226Z,85.35
2017-03-24T02:50:49.279Z,84.93
2017-03-24T02:51:49.275Z,85.09
2017-03-24T02:52:44.438Z,85.12
2017-03-24T02:53:44.441Z,84.76
2017-03-24T02:54:49.550Z,85.11
2017-03-24T02:55:49.552Z,84.69
2017-03-24T02:56:33.570Z,85.09
2017-03-24T02:57:44.854Z,84.96
2017-03-24T02:58:44.671Z,84.96
2017-03-24T02:59:38.568Z,85.82
2017-03-24T03:00:44.409Z,86.62
2017-03-24T03:01:44.525Z,85.75
2017-03-24T03:02:39.892Z,85.91
2017-03-24T03:03:49.295Z,85.60
2017-03-24T03:04:49.711Z,85.74
2017-03-24T03:05:49.571Z,85.39
2017-03-24T03:06:44.459Z,84.69
2017-03-24T03:07:45.057Z,84.83
2017-03-24T03:08:49.716Z,84.79
2017-03-24T03:09:44.963Z,84.76
2017-03-24T03:10:39.776Z,84.53
2017-03-24T03:11:49.386Z,84.79
2017-03-24T03:12:49.307Z,85.10
2017-03-24T03:13:50.312Z,84.98
2017-03-24T03:14:44.995Z,84.74
2017-03-24T03:15:45.004Z,85.68
2017-03-24T03:16:44.979Z,85.40
2017-03-24T03:17:44.934Z,85.06
2017-03-24T03:18:49.307Z,85.18
2017-03-24T03:19:33.728Z,85.74
2017-03-24T03:20:43.660Z,85.06
2017-03-24T03:21:49.610Z,85.64
2017-03-24T03:22:33.687Z,85.80
2017-03-24T03:23:49.954Z,85.15
2017-03-24T03:24:44.825Z,85.62
2017-03-24T03:25:45.030Z,85.48
2017-03-24T03:26:49.673Z,85.31
2017-03-24T03:27:45.046Z,85.62
2017-03-24T03:28:44.461Z,86.92
2017-03-24T03:29:48.951Z,86.44
2017-03-24T03:30:43.769Z,86.00
2017-03-24T03:31:45.007Z,85.83
2017-03-24T03:32:44.253Z,85.34
2017-03-24T03:33:38.532Z,86.99
2017-03-24T03:34:34.964Z,86.34
2017-03-24T03:35:49.773Z,86.18
2017-03-24T03:36:45.098Z,86.18
2017-03-24T03:37:39.361Z,86.11
2017-03-24T03:38:45.072Z,86.65
2017-03-24T03:39:44.403Z,86.20
2017-03-24T03:40:44.562Z,86.24
2017-03-24T03:41:45.026Z,86.94
2017-03-24T03:42:45.011Z,86.67
2017-03-24T03:43:45.058Z,86.98
2017-03-24T03:44:50.061Z,87.10
2017-03-24T03:45:44.824Z,86.14
2017-03-24T03:46:44.770Z,85.99
2017-03-24T03:47:44.870Z,86.32
2017-03-24T03:48:50.276Z,86.22
2017-03-24T03:49:49.334Z,86.73
2017-03-24T03:50:48.512Z,86.72
2017-03-24T03:51:33.362Z,85.82
2017-03-24T03:52:38.732Z,86.60
2017-03-24T03:53:46.153Z,86.74
2017-03-24T03:54:33.486Z,86.19
2017-03-24T03:55:45.156Z,86.20
2017-03-24T03:56:45.272Z,85.80
2017-03-24T03:57:49.565Z,86.23
2017-03-24T03:58:44.885Z,86.74
2017-03-24T03:59:45.283Z,87.66
2017-03-24T04:00:33.745Z,87.35
2017-03-24T04:01:38.824Z,86.94
2017-03-24T04:02:45.421Z,87.09
2017-03-24T04:03:45.363Z,85.81
2017-03-24T04:04:45.250Z,85.68
2017-03-24T04:05:50.556Z,85.73
2017-03-24T04:06:38.594Z,85.79
2017-03-24T04:07:49.773Z,86.01
2017-03-24T04:08:44.643Z,86.14
2017-03-24T04:09:49.578Z,86.42
2017-03-24T04:10:44.431Z,86.03
2017-03-24T04:11:49.842Z,85.59
2017-03-24T04:12:49.838Z,85.78
2017-03-24T04:13:45.247Z,86.20
2017-03-24T04:14:45.336Z,86.28
2017-03-24T04:15:44.828Z,86.73
2017-03-24T04:16:44.931Z,86.62
2017-03-24T04:17:28.216Z,86.23
2017-03-24T04:18:49.444Z,87.24
2017-03-24T04:19:49.788Z,86.82
2017-03-24T04:20:44.294Z,86.63
2017-03-24T04:21:44.388Z,86.40
2017-03-24T04:22:45.651Z,87.11
2017-03-24T04:23:49.503Z,86.91
2017-03-24T04:24:45.292Z,86.14
2017-03-24T04:25:45.324Z,86.18
2017-03-24T04:26:49.835Z,85.92
2017-03-24T04:27:45.317Z,86.35
2017-03-24T04:28:45.575Z,86.49
2017-03-24T04:29:49.638Z,86.32
2017-03-24T04:30:49.637Z,86.17
2017-03-24T04:31:45.566Z,86.45
2017-03-24T04:32:50.568Z,85.74
2017-03-24T04:33:44.277Z,86.63
2017-03-24T04:34:45.305Z,86.19
2017-03-24T04:35:40.390Z,86.38
2017-03-24T04:36:45.424Z,86.82
2017-03-24T04:37:46.450Z,86.57
2017-03-24T04:38:39.676Z,86.90
2017-03-24T04:39:44.666Z,87.32
2017-03-24T04:40:50.679Z,86.63
2017-03-24T04:41:45.028Z,86.99
2017-03-24T04:42:49.397Z,86.75
2017-03-24T04:43:44.891Z,87.06
2017-03-24T04:44:50.027Z,87.52
2017-03-24T04:45:45.616Z,87.68
2017-03-24T04:46:39.148Z,87.74
2017-03-24T04:47:44.755Z,87.44
2017-03-24T04:48:45.537Z,86.97
2017-03-24T04:49:45.034Z,86.73
2017-03-24T04:50:48.701Z,86.58
2017-03-24T04:51:45.428Z,86.99
2017-03-24T04:52:40.499Z,86.48
2017-03-24T04:53:34.706Z,86.52
2017-03-24T04:54:49.561Z,86.16
2017-03-24T04:55:42.115Z,86.60
2017-03-24T04:56:44.991Z,87.05
2017-03-24T04:57:35.164Z,87.44
2017-03-24T04:58:33.290Z,87.21
2017-03-24T04:59:45.283Z,87.73
2017-03-24T05:00:45.470Z,88.04
2017-03-24T05:01:50.573Z,87.41
2017-03-24T05:02:51.574Z,87.51
2017-03-24T05:03:44.790Z,87.27
2017-03-24T05:04:45.180Z,87.56
2017-03-24T05:05:49.496Z,87.78
2017-03-24T05:06:50.577Z,87.28
2017-03-24T05:07:45.738Z,87.35
2017-03-24T05:08:39.375Z,87.56
2017-03-24T05:09:38.701Z,88.80
2017-03-24T05:10:48.989Z,88.37
2017-03-24T05:11:44.728Z,87.77
2017-03-24T05:12:40.016Z,87.60
2017-03-24T05:13:50.540Z,87.81
2017-03-24T05:14:45.339Z,88.05
2017-03-24T05:15:45.178Z,87.90
2017-03-24T05:16:39.864Z,88.33
2017-03-24T05:17:45.005Z,87.92
2017-03-24T05:18:45.076Z,87.49
2017-03-24T05:19:44.077Z,87.64
2017-03-24T05:20:43.893Z,87.28
2017-03-24T05:21:34.348Z,87.57
2017-03-24T05:22:44.911Z,87.51
2017-03-24T05:23:45.546Z,87.55
2017-03-24T05:24:45.561Z,87.03
2017-03-24T05:26:44.906Z,87.26
2017-03-24T05:27:49.588Z,88.40
2017-03-24T05:28:45.169Z,87.93
2017-03-24T05:29:45.185Z,87.97
2017-03-24T05:30:49.487Z,87.28
2017-03-24T05:31:50.581Z,86.65
2017-03-24T05:32:45.387Z,87.11
2017-03-24T05:33:45.279Z,86.78
2017-03-24T05:34:50.571Z,87.27
2017-03-24T05:35:50.581Z,87.45
2017-03-24T05:36:45.045Z,87.54
2017-03-24T05:37:45.569Z,87.42
2017-03-24T05:38:49.418Z,87.19
2017-03-24T05:39:45.305Z,87.11
2017-03-24T05:40:39.827Z,86.85
2017-03-24T05:41:50.401Z,86.96
2017-03-24T05:42:45.609Z,87.88
2017-03-24T05:43:44.996Z,87.56
2017-03-24T05:44:45.229Z,87.20
2017-03-24T05:45:49.804Z,86.35
2017-03-24T05:46:49.786Z,86.57
2017-03-24T05:47:44.851Z,86.65
2017-03-24T05:48:44.961Z,86.15
2017-03-24T05:49:28.185Z,87.00
2017-03-24T05:50:48.805Z,86.59
2017-03-24T05:51:43.664Z,86.22
2017-03-24T05:52:49.836Z,86.69
2017-03-24T05:53:50.316Z,86.12
2017-03-24T05:54:45.516Z,85.90
2017-03-24T05:55:50.586Z,86.12
2017-03-24T05:56:49.787Z,86.56
2017-03-24T05:57:45.788Z,87.11
2017-03-24T05:58:50.266Z,86.93
2017-03-24T05:59:28.539Z,88.16
2017-03-24T06:00:49.879Z,88.59
2017-03-24T06:01:45.433Z,88.54
2017-03-24T06:02:45.472Z,88.71
2017-03-24T06:03:45.685Z,87.92
2017-03-24T06:04:29.121Z,88.06
2017-03-24T06:05:29.518Z,88.12
2017-03-24T06:06:40.245Z,87.73
2017-03-24T06:07:28.542Z,88.67
2017-03-24T06:08:44.920Z,88.31
2017-03-24T06:09:45.339Z,88.33
2017-03-24T06:10:44.740Z,88.00
2017-03-24T06:11:33.962Z,88.38
2017-03-24T06:12:45.141Z,88.59
2017-03-24T06:13:45.180Z,88.87
2017-03-24T06:14:45.142Z,88.35
2017-03-24T06:15:28.406Z,88.30
2017-03-24T06:16:48.653Z,87.84
2017-03-24T06:17:33.851Z,88.21
2017-03-24T06:18:55.595Z,88.25
2017-03-24T06:19:34.654Z,87.86
2017-03-24T06:20:49.162Z,87.86
2017-03-24T06:21:45.337Z,87.69
2017-03-24T06:22:44.692Z,87.72
2017-03-24T06:23:40.466Z,87.42
2017-03-24T06:24:39.923Z,87.45
2017-03-24T06:25:45.035Z,87.41
2017-03-24T06:26:36.029Z,88.43
2017-03-24T06:27:23.423Z,88.49
2017-03-24T06:28:17.820Z,88.04
2017-03-24T06:29:45.336Z,87.09
2017-03-24T06:30:44.740Z,87.00
2017-03-24T06:31:40.056Z,88.09
2017-03-24T06:32:45.644Z,87.88
2017-03-24T06:33:45.521Z,88.07
2017-03-24T06:34:49.962Z,88.68
2017-03-24T06:35:49.842Z,89.17
2017-03-24T06:36:54.858Z,88.76
2017-03-24T06:37:54.822Z,87.80
2017-03-24T06:38:50.000Z,87.59
2017-03-24T06:45:41.179Z,86.51
2017-03-24T06:47:22.705Z,87.44
2017-03-24T06:54:34.864Z,90.08
2017-03-24T06:57:44.338Z,87.94
2017-03-24T06:58:50.593Z,87.71
2017-03-24T06:59:45.829Z,87.69
2017-03-24T07:00:45.516Z,87.21
2017-03-24T07:01:45.680Z,87.29
2017-03-24T07:02:50.653Z,87.08
2017-03-24T07:03:33.981Z,87.31
2017-03-24T07:04:23.403Z,87.12
2017-03-24T07:05:29.122Z,87.41
2017-03-24T07:06:54.797Z,87.64
2017-03-24T07:07:58.430Z,88.11
2017-03-24T07:08:45.553Z,87.29
2017-03-24T07:09:52.475Z,86.56
2017-03-24T07:10:50.592Z,86.19
2017-03-24T07:11:50.289Z,85.64
2017-03-24T07:12:45.531Z,86.14
2017-03-24T07:13:45.305Z,86.14
2017-03-24T07:14:53.591Z,85.80
2017-03-24T07:15:50.593Z,85.95
2017-03-24T07:16:49.959Z,87.38
2017-03-24T07:17:49.366Z,87.95
2017-03-24T07:18:38.460Z,86.73
2017-03-24T07:19:44.870Z,87.23
2017-03-24T07:20:38.518Z,86.56
2017-03-24T07:21:45.125Z,86.35
2017-03-24T07:22:45.245Z,85.85
2017-03-24T07:23:44.719Z,86.52
2017-03-24T07:24:45.822Z,86.61
2017-03-24T07:25:45.294Z,86.82
2017-03-24T07:26:33.808Z,86.60
2017-03-24T07:27:49.694Z,87.01
2017-03-24T07:28:45.264Z,86.19
2017-03-24T07:29:45.339Z,85.99
2017-03-24T07:30:34.082Z,86.47
2017-03-24T07:31:45.701Z,86.83
2017-03-24T07:32:45.790Z,86.15
2017-03-24T07:33:50.591Z,86.84
2017-03-24T07:34:49.618Z,86.92
2017-03-24T07:35:50.552Z,86.71
2017-03-24T07:36:45.425Z,87.52
2017-03-24T07:37:50.591Z,88.37
2017-03-24T07:38:40.122Z,88.00
2017-03-24T07:39:40.225Z,87.96
2017-03-24T07:40:49.762Z,87.05
2017-03-24T07:41:29.025Z,87.24
2017-03-24T07:42:33.133Z,87.51
2017-03-24T07:43:38.494Z,86.99
2017-03-24T07:44:50.078Z,86.40
2017-03-24T07:45:45.286Z,86.26
2017-03-24T07:46:45.378Z,86.50
2017-03-24T07:47:45.490Z,87.57
2017-03-24T07:48:28.724Z,87.75
2017-03-24T07:49:45.833Z,86.59
2017-03-24T07:50:38.585Z,86.61
2017-03-24T07:51:50.589Z,87.07
2017-03-24T07:52:45.806Z,86.28
2017-03-24T07:53:45.705Z,86.00
2017-03-24T07:54:46.445Z,86.06
2017-03-24T07:55:45.304Z,86.57
2017-03-24T07:56:50.099Z,87.70
2017-03-24T07:57:43.656Z,86.40
2017-03-24T07:58:40.254Z,86.22
2017-03-24T07:59:45.373Z,86.82
2017-03-24T08:00:45.454Z,87.38
2017-03-24T08:01:44.583Z,86.51
2017-03-24T08:02:45.335Z,87.21
2017-03-24T08:03:45.862Z,87.04
2017-03-24T08:04:45.327Z,87.53
2017-03-24T08:05:45.171Z,87.32
2017-03-24T08:06:45.744Z,87.01
2017-03-24T08:07:45.343Z,86.64
2017-03-24T08:08:45.814Z,86.09
2017-03-24T08:09:50.311Z,86.35
2017-03-24T08:10:44.860Z,86.10
2017-03-24T08:11:33.673Z,85.12
2017-03-24T08:12:45.435Z,85.33
2017-03-24T08:13:45.446Z,85.56
2017-03-24T08:14:45.607Z,85.30
2017-03-24T08:15:50.112Z,85.30
2017-03-24T08:16:40.321Z,85.19
2017-03-24T08:17:45.633Z,85.25
2017-03-24T08:18:50.114Z,85.41
2017-03-24T08:19:45.741Z,85.48
2017-03-24T08:20:45.263Z,85.86
2017-03-24T08:21:50.040Z,85.62
2017-03-24T08:22:45.598Z,85.80
2017-03-24T08:23:45.712Z,85.62
2017-03-24T08:24:45.804Z,85.33
2017-03-24T08:25:45.825Z,85.40
2017-03-24T08:26:45.850Z,86.12
2017-03-24T08:27:50.121Z,85.32
2017-03-24T08:28:45.249Z,85.28
2017-03-24T08:29:45.841Z,85.12
2017-03-24T08:30:50.131Z,84.92
2017-03-24T08:31:50.131Z,84.74
2017-03-24T08:32:45.008Z,85.09
2017-03-24T08:33:50.852Z,84.54
2017-03-24T08:34:39.736Z,84.01
2017-03-24T08:35:50.142Z,83.73
2017-03-24T08:36:45.380Z,83.65
2017-03-24T08:37:38.774Z,83.91
2017-03-24T08:38:50.019Z,84.76
2017-03-24T08:39:50.145Z,85.13
2017-03-24T08:40:28.342Z,84.65
2017-03-24T08:41:51.055Z,84.74
2017-03-24T08:42:40.858Z,84.90
2017-03-24T08:43:50.581Z,84.51
2017-03-24T08:44:45.613Z,84.25
2017-03-24T08:45:50.468Z,84.33
2017-03-24T08:46:45.756Z,84.74
2017-03-24T08:47:44.862Z,84.66
2017-03-24T08:48:50.151Z,85.11
2017-03-24T08:49:45.771Z,84.09
2017-03-24T08:50:45.539Z,84.82
2017-03-24T08:51:39.712Z,85.29
2017-03-24T08:52:50.148Z,83.50
2017-03-24T08:53:34.767Z,83.94
2017-03-24T08:54:33.636Z,84.25
2017-03-24T08:55:45.393Z,84.05
2017-03-24T08:56:45.578Z,83.86
2017-03-24T08:57:33.788Z,84.09
2017-03-24T08:58:50.164Z,83.99
2017-03-24T08:59:44.985Z,83.08
2017-03-24T09:00:44.838Z,83.26
2017-03-24T09:01:50.579Z,82.45
2017-03-24T09:02:33.907Z,82.01
2017-03-24T09:03:50.164Z,82.11
2017-03-24T09:04:45.164Z,82.59
2017-03-24T09:05:45.669Z,81.74
2017-03-24T09:06:45.698Z,81.99
2017-03-24T09:07:45.902Z,81.96
2017-03-24T09:08:49.595Z,82.49
2017-03-24T09:09:50.253Z,82.65
2017-03-24T09:10:45.297Z,82.85
2017-03-24T09:11:45.458Z,83.38
2017-03-24T09:12:50.132Z,83.78
2017-03-24T09:13:45.645Z,83.45
2017-03-24T09:14:45.347Z,82.99
2017-03-24T09:15:34.074Z,82.82
2017-03-24T09:16:45.955Z,83.17
2017-03-24T09:17:45.962Z,82.60
2017-03-24T09:18:45.416Z,83.62
2017-03-24T09:19:50.335Z,82.94
2017-03-24T09:20:44.373Z,84.44
2017-03-24T09:21:40.803Z,84.02
2017-03-24T09:22:50.600Z,83.06
2017-03-24T09:23:45.247Z,82.74
2017-03-24T09:24:45.237Z,83.85
2017-03-24T09:25:45.313Z,83.44
2017-03-24T09:26:45.354Z,83.26
2017-03-24T09:27:50.361Z,82.75
2017-03-24T09:28:45.289Z,82.15
2017-03-24T09:29:46.309Z,81.53
2017-03-24T09:30:46.259Z,82.42
2017-03-24T09:31:45.348Z,82.26
2017-03-24T09:32:45.662Z,82.42
2017-03-24T09:33:45.167Z,81.84
2017-03-24T09:34:44.957Z,82.09
2017-03-24T09:35:44.462Z,81.28
2017-03-24T09:36:44.887Z,81.72
2017-03-24T09:37:33.746Z,82.27
2017-03-24T09:38:39.825Z,82.11
2017-03-24T09:39:50.327Z,81.18
2017-03-24T09:40:49.847Z,81.81
2017-03-24T09:41:45.344Z,81.34
2017-03-24T09:42:45.443Z,81.86
2017-03-24T09:43:33.131Z,80.95
2017-03-24T09:44:29.016Z,80.63
2017-03-24T09:45:49.777Z,81.35
2017-03-24T09:46:49.887Z,82.22
2017-03-24T09:47:45.322Z,82.35
2017-03-24T09:48:17.270Z,82.70
2017-03-24T09:49:50.532Z,82.50
2017-03-24T09:50:49.548Z,82.12
2017-03-24T09:51:45.272Z,81.63
2017-03-24T09:52:45.396Z,81.73
2017-03-24T09:53:49.538Z,81.49
2017-03-24T09:54:45.452Z,82.23
2017-03-24T09:55:44.867Z,82.33
2017-03-24T09:56:49.222Z,82.25
2017-03-24T09:57:40.288Z,83.02
2017-03-24T09:58:33.275Z,81.89
2017-03-24T09:59:45.456Z,81.91
2017-03-24T10:00:50.225Z,83.35
2017-03-24T10:01:45.293Z,83.76
2017-03-24T10:02:45.661Z,83.24
2017-03-24T10:03:50.556Z,82.65
2017-03-24T10:04:45.668Z,82.13
2017-03-24T10:05:44.931Z,82.65
2017-03-24T10:06:39.937Z,82.09
2017-03-24T10:07:39.707Z,82.24
2017-03-24T10:08:50.463Z,82.57
2017-03-24T10:09:50.454Z,81.73
2017-03-24T10:10:50.475Z,81.39
2017-03-24T10:11:40.254Z,80.96
2017-03-24T10:12:45.660Z,82.37
2017-03-24T10:13:45.497Z,83.13
2017-03-24T10:14:45.537Z,82.77
2017-03-24T10:15:45.519Z,82.22
2017-03-24T10:16:45.648Z,82.22
2017-03-24T10:17:50.403Z,82.62
2017-03-24T10:18:49.363Z,83.31
2017-03-24T10:19:45.984Z,82.90
2017-03-24T10:20:32.664Z,82.90
2017-03-24T10:21:45.460Z,82.50
2017-03-24T10:22:50.577Z,81.50
2017-03-24T10:23:45.854Z,81.30
2017-03-24T10:24:45.506Z,81.10
2017-03-24T10:25:45.555Z,81.45
2017-03-24T10:26:51.136Z,81.78
2017-03-24T10:27:34.199Z,81.48
2017-03-24T10:28:40.555Z,80.57
2017-03-24T10:29:45.789Z,81.54
2017-03-24T10:30:46.342Z,81.49
2017-03-24T10:31:45.752Z,81.11
2017-03-24T10:32:45.081Z,81.08
2017-03-24T10:33:45.134Z,82.08
2017-03-24T10:34:45.259Z,82.54
2017-03-24T10:35:40.211Z,82.40
2017-03-24T10:36:50.543Z,82.50
2017-03-24T10:37:41.497Z,83.14
2017-03-24T10:38:28.694Z,82.59
2017-03-24T10:39:33.312Z,83.33
2017-03-24T10:40:45.583Z,82.04
2017-03-24T10:41:50.018Z,81.76
2017-03-24T10:42:45.356Z,81.05
2017-03-24T10:43:50.362Z,81.53
2017-03-24T10:44:44.866Z,81.29
2017-03-24T10:45:45.544Z,81.71
2017-03-24T10:46:28.740Z,82.16
2017-03-24T10:47:50.368Z,82.13
2017-03-24T10:48:45.564Z,82.74
2017-03-24T10:49:50.214Z,83.45
2017-03-24T10:50:45.157Z,83.84
2017-03-24T10:51:44.997Z,82.94
2017-03-24T10:52:40.576Z,83.70
2017-03-24T10:53:50.503Z,83.24
2017-03-24T10:54:46.334Z,83.58
2017-03-24T10:55:50.387Z,83.78
2017-03-24T10:56:35.498Z,84.48
2017-03-24T10:57:45.869Z,83.24
2017-03-24T10:58:44.680Z,83.66
2017-03-24T10:59:49.677Z,84.07
2017-03-24T11:00:45.168Z,84.14
2017-03-24T11:01:45.037Z,84.97
2017-03-24T11:02:28.169Z,84.32
2017-03-24T11:03:33.624Z,83.13
2017-03-24T11:04:46.281Z,83.64
2017-03-24T11:05:49.973Z,84.22
2017-03-24T11:06:46.308Z,83.03
2017-03-24T11:07:45.704Z,83.10
2017-03-24T11:08:45.805Z,82.74
2017-03-24T11:09:45.234Z,83.85
2017-03-24T11:10:45.815Z,83.04
2017-03-24T11:11:45.807Z,82.37
2017-03-24T11:12:45.727Z,82.70
2017-03-24T11:13:45.531Z,83.05
2017-03-24T11:14:45.473Z,82.29
2017-03-24T11:15:44.919Z,83.15
2017-03-24T11:16:45.926Z,83.69
2017-03-24T11:17:40.236Z,83.16
2017-03-24T11:18:45.158Z,82.74
2017-03-24T11:19:45.315Z,83.02
2017-03-24T11:20:45.256Z,82.35
2017-03-24T11:21:43.643Z,81.48
2017-03-24T11:22:33.595Z,81.78
2017-03-24T11:23:50.245Z,81.59
2017-03-24T11:24:19.199Z,81.64
2017-03-24T11:25:09.561Z,82.62
2017-03-24T11:26:45.927Z,82.09
2017-03-24T11:27:45.424Z,81.85
2017-03-24T11:28:39.323Z,81.27
2017-03-24T11:29:50.484Z,81.77
2017-03-24T11:30:40.483Z,82.72
2017-03-24T11:31:33.483Z,84.41
2017-03-24T11:32:40.178Z,83.91
2017-03-24T11:33:45.856Z,83.21
2017-03-24T11:34:45.721Z,82.90
2017-03-24T11:35:45.400Z,82.53
2017-03-24T11:36:50.384Z,82.13
2017-03-24T11:37:40.575Z,83.35
2017-03-24T11:38:50.209Z,83.43
2017-03-24T11:39:45.065Z,83.78
2017-03-24T11:40:39.854Z,83.85
2017-03-24T11:41:50.253Z,84.69
2017-03-24T11:42:50.253Z,85.13
2017-03-24T11:43:45.302Z,84.75
2017-03-24T11:44:40.397Z,84.49
2017-03-24T11:45:29.273Z,84.65
2017-03-24T11:46:35.393Z,84.14
2017-03-24T11:47:28.826Z,85.31
2017-03-24T11:48:45.286Z,85.47
2017-03-24T11:49:45.366Z,85.57
2017-03-24T11:50:44.965Z,84.63
2017-03-24T11:51:50.547Z,84.33
2017-03-24T11:52:45.642Z,84.06
2017-03-24T11:53:45.688Z,84.14
2017-03-24T11:54:39.672Z,84.25
2017-03-24T11:55:49.976Z,84.22
2017-03-24T11:56:32.885Z,84.07
2017-03-24T11:57:45.421Z,83.92
2017-03-24T11:58:50.039Z,84.41
2017-03-24T11:59:45.373Z,83.95
2017-03-24T12:00:45.955Z,84.22
2017-03-24T12:01:28.090Z,84.22
2017-03-24T12:02:45.647Z,84.68
2017-03-24T12:03:45.744Z,84.86
2017-03-24T12:04:45.843Z,83.80
2017-03-24T12:05:45.873Z,82.45
2017-03-24T12:06:46.090Z,82.69
2017-03-24T12:07:45.984Z,83.86
2017-03-24T12:08:40.511Z,83.86
2017-03-24T12:09:45.405Z,84.09
2017-03-24T12:10:50.302Z,84.24
2017-03-24T12:11:46.061Z,83.63
2017-03-24T12:12:40.371Z,83.83
2017-03-24T12:13:45.046Z,83.02
2017-03-24T12:14:45.135Z,82.79
2017-03-24T12:15:43.302Z,81.95
2017-03-24T12:16:45.550Z,82.27
2017-03-24T12:17:49.765Z,82.42
2017-03-24T12:18:45.862Z,82.35
2017-03-24T12:19:50.512Z,82.60
2017-03-24T12:20:48.323Z,82.45
2017-03-24T12:21:45.322Z,81.52
2017-03-24T12:22:45.799Z,81.24
2017-03-24T12:23:33.756Z,80.37
2017-03-24T12:24:46.145Z,80.58
2017-03-24T12:25:45.209Z,79.91
2017-03-24T12:26:40.384Z,79.69
2017-03-24T12:27:45.387Z,80.93
2017-03-24T12:28:40.598Z,81.19
2017-03-24T12:29:40.695Z,80.87
2017-03-24T12:30:50.577Z,80.66
2017-03-24T12:31:45.341Z,81.11
2017-03-24T12:32:45.316Z,81.08
2017-03-24T12:33:40.256Z,81.16
2017-03-24T12:34:40.140Z,81.42
2017-03-24T12:35:40.216Z,80.57
2017-03-24T12:36:40.077Z,81.49
2017-03-24T12:37:45.274Z,81.31
2017-03-24T12:38:45.809Z,80.98
2017-03-24T12:39:45.800Z,81.78
2017-03-24T12:40:50.457Z,81.03
2017-03-24T12:41:28.744Z,80.90
2017-03-24T12:42:38.137Z,80.65
2017-03-24T12:43:50.678Z,80.29
2017-03-24T12:44:45.194Z,80.05
2017-03-24T12:45:45.419Z,79.93
2017-03-24T12:46:50.176Z,80.49
2017-03-24T12:47:45.743Z,79.86
2017-03-24T12:48:45.766Z,79.80
2017-03-24T12:49:45.560Z,80.43
2017-03-24T12:50:53.599Z,80.40
2017-03-24T12:51:50.400Z,80.45
2017-03-24T12:52:49.878Z,80.00
2017-03-24T12:53:46.197Z,81.47
2017-03-24T12:54:45.012Z,80.75
2017-03-24T12:55:44.990Z,81.60
2017-03-24T12:56:39.867Z,80.68
2017-03-24T12:57:50.574Z,81.46
2017-03-24T12:58:45.808Z,80.86
2017-03-24T12:59:45.641Z,82.74
2017-03-24T13:00:45.763Z,82.89
2017-03-24T13:01:40.473Z,82.64
2017-03-24T13:02:45.433Z,81.73
2017-03-24T13:03:45.563Z,80.96
2017-03-24T13:04:49.801Z,80.53
2017-03-24T13:05:33.700Z,81.31
2017-03-24T13:06:40.607Z,81.26
2017-03-24T13:07:45.867Z,81.31
2017-03-24T13:08:29.141Z,81.00